sensor_id;sensor_type;location;lat;lon;timestamp;P1;durP1;ratioP1;P2;durP2;ratioP2
55025;SDS011;40925;45.666;18.994;2023-05-08T00:00:28;16.35;;;9.02;;
55025;SDS011;40925;45.666;18.994;2023-05-08T00:02:53;16.40;;;8.40;;
55025;SDS011;40925;45.666;18.994;2023-05-08T00:05:19;19.35;;;11.07;;
55025;SDS011;40925;45.666;18.994;2023-05-08T00:07:45;17.48;;;10.80;;
55025;SDS011;40925;45.666;18.994;2023-05-08T00:10:11;13.90;;;8.43;;
55025;SDS011;40925;45.666;18.994;2023-05-08T00:12:36;12.65;;;8.45;;
55025;SDS011;40925;45.666;18.994;2023-05-08T00:15:03;12.07;;;7.80;;
55025;SDS011;40925;45.666;18.994;2023-05-08T00:17:29;13.60;;;8.07;;
55025;SDS011;40925;45.666;18.994;2023-05-08T00:19:55;12.60;;;7.82;;
55025;SDS011;40925;45.666;18.994;2023-05-08T00:22:21;13.82;;;8.68;;
55025;SDS011;40925;45.666;18.994;2023-05-08T00:24:47;13.50;;;8.85;;
55025;SDS011;40925;45.666;18.994;2023-05-08T00:27:12;13.52;;;8.75;;
55025;SDS011;40925;45.666;18.994;2023-05-08T00:29:38;13.35;;;8.85;;
55025;SDS011;40925;45.666;18.994;2023-05-08T00:32:07;13.07;;;9.27;;
55025;SDS011;40925;45.666;18.994;2023-05-08T00:34:33;14.00;;;9.15;;
55025;SDS011;40925;45.666;18.994;2023-05-08T00:36:59;13.30;;;9.05;;
55025;SDS011;40925;45.666;18.994;2023-05-08T00:39:25;12.88;;;8.57;;
55025;SDS011;40925;45.666;18.994;2023-05-08T00:41:51;14.57;;;8.80;;
55025;SDS011;40925;45.666;18.994;2023-05-08T00:44:16;15.25;;;10.27;;
55025;SDS011;40925;45.666;18.994;2023-05-08T00:46:42;14.23;;;9.27;;
55025;SDS011;40925;45.666;18.994;2023-05-08T00:49:08;12.57;;;8.27;;
55025;SDS011;40925;45.666;18.994;2023-05-08T00:51:38;12.18;;;8.27;;
55025;SDS011;40925;45.666;18.994;2023-05-08T00:54:08;12.88;;;8.13;;
55025;SDS011;40925;45.666;18.994;2023-05-08T00:56:34;11.27;;;7.68;;
55025;SDS011;40925;45.666;18.994;2023-05-08T00:59:02;11.15;;;7.72;;
55025;SDS011;40925;45.666;18.994;2023-05-08T01:01:36;14.68;;;8.35;;
55025;SDS011;40925;45.666;18.994;2023-05-08T01:04:02;13.60;;;7.90;;
55025;SDS011;40925;45.666;18.994;2023-05-08T01:06:29;13.73;;;7.95;;
55025;SDS011;40925;45.666;18.994;2023-05-08T01:08:55;12.18;;;8.35;;
55025;SDS011;40925;45.666;18.994;2023-05-08T01:11:37;11.73;;;8.27;;
55025;SDS011;40925;45.666;18.994;2023-05-08T01:14:28;14.70;;;8.77;;
55025;SDS011;40925;45.666;18.994;2023-05-08T01:17:08;15.57;;;8.68;;
55025;SDS011;40925;45.666;18.994;2023-05-08T01:23:02;12.68;;;8.52;;
55025;SDS011;40925;45.666;18.994;2023-05-08T01:34:35;12.98;;;9.32;;
55025;SDS011;40925;45.666;18.994;2023-05-08T01:37:14;11.57;;;8.45;;
55025;SDS011;40925;45.666;18.994;2023-05-08T01:45:06;10.75;;;7.40;;
55025;SDS011;40925;45.666;18.994;2023-05-08T01:47:36;12.25;;;8.07;;
55025;SDS011;40925;45.666;18.994;2023-05-08T01:50:04;11.32;;;7.97;;
55025;SDS011;40925;45.666;18.994;2023-05-08T01:52:36;14.00;;;8.50;;
55025;SDS011;40925;45.666;18.994;2023-05-08T01:55:19;12.82;;;8.77;;
55025;SDS011;40925;45.666;18.994;2023-05-08T01:57:51;13.48;;;8.98;;
55025;SDS011;40925;45.666;18.994;2023-05-08T02:00:20;15.07;;;9.13;;
55025;SDS011;40925;45.666;18.994;2023-05-08T02:02:48;12.52;;;8.90;;
55025;SDS011;40925;45.666;18.994;2023-05-08T02:05:15;14.05;;;8.32;;
55025;SDS011;40925;45.666;18.994;2023-05-08T02:07:44;13.55;;;7.75;;
55025;SDS011;40925;45.666;18.994;2023-05-08T02:10:11;10.70;;;8.00;;
55025;SDS011;40925;45.666;18.994;2023-05-08T02:12:37;11.57;;;7.82;;
55025;SDS011;40925;45.666;18.994;2023-05-08T02:15:03;10.60;;;7.60;;
55025;SDS011;40925;45.666;18.994;2023-05-08T02:17:30;12.68;;;7.35;;
55025;SDS011;40925;45.666;18.994;2023-05-08T02:19:57;12.55;;;7.47;;
55025;SDS011;40925;45.666;18.994;2023-05-08T02:22:24;10.20;;;7.28;;
55025;SDS011;40925;45.666;18.994;2023-05-08T02:24:51;9.35;;;6.88;;
55025;SDS011;40925;45.666;18.994;2023-05-08T02:27:23;12.35;;;7.15;;
55025;SDS011;40925;45.666;18.994;2023-05-08T02:29:50;14.20;;;7.70;;
55025;SDS011;40925;45.666;18.994;2023-05-08T02:32:18;12.07;;;7.63;;
55025;SDS011;40925;45.666;18.994;2023-05-08T02:34:45;10.45;;;7.55;;
55025;SDS011;40925;45.666;18.994;2023-05-08T02:37:12;15.02;;;8.25;;
55025;SDS011;40925;45.666;18.994;2023-05-08T02:39:39;14.48;;;8.70;;
55025;SDS011;40925;45.666;18.994;2023-05-08T02:42:06;11.02;;;8.05;;
55025;SDS011;40925;45.666;18.994;2023-05-08T02:44:32;13.23;;;8.48;;
55025;SDS011;40925;45.666;18.994;2023-05-08T02:46:59;12.38;;;8.35;;
55025;SDS011;40925;45.666;18.994;2023-05-08T02:52:31;12.57;;;8.27;;
55025;SDS011;40925;45.666;18.994;2023-05-08T02:55:08;11.02;;;7.78;;
55025;SDS011;40925;45.666;18.994;2023-05-08T02:57:52;11.95;;;8.02;;
55025;SDS011;40925;45.666;18.994;2023-05-08T03:00:26;13.18;;;8.05;;
55025;SDS011;40925;45.666;18.994;2023-05-08T03:03:03;12.43;;;6.88;;
55025;SDS011;40925;45.666;18.994;2023-05-08T03:06:03;9.93;;;6.22;;
55025;SDS011;40925;45.666;18.994;2023-05-08T03:08:43;9.32;;;6.13;;
55025;SDS011;40925;45.666;18.994;2023-05-08T03:11:13;10.00;;;6.40;;
55025;SDS011;40925;45.666;18.994;2023-05-08T03:13:40;10.10;;;6.40;;
55025;SDS011;40925;45.666;18.994;2023-05-08T03:16:09;8.50;;;5.85;;
55025;SDS011;40925;45.666;18.994;2023-05-08T03:18:50;11.52;;;5.90;;
55025;SDS011;40925;45.666;18.994;2023-05-08T03:21:17;8.80;;;6.05;;
55025;SDS011;40925;45.666;18.994;2023-05-08T03:23:45;8.95;;;5.68;;
55025;SDS011;40925;45.666;18.994;2023-05-08T03:26:11;9.73;;;5.75;;
55025;SDS011;40925;45.666;18.994;2023-05-08T03:28:38;8.77;;;6.03;;
55025;SDS011;40925;45.666;18.994;2023-05-08T03:31:04;8.18;;;6.00;;
55025;SDS011;40925;45.666;18.994;2023-05-08T03:33:31;9.18;;;6.53;;
55025;SDS011;40925;45.666;18.994;2023-05-08T03:35:57;9.68;;;6.15;;
55025;SDS011;40925;45.666;18.994;2023-05-08T03:38:24;9.98;;;6.13;;
55025;SDS011;40925;45.666;18.994;2023-05-08T03:40:51;8.07;;;6.13;;
55025;SDS011;40925;45.666;18.994;2023-05-08T03:43:17;9.82;;;6.70;;
55025;SDS011;40925;45.666;18.994;2023-05-08T03:45:45;9.65;;;5.88;;
55025;SDS011;40925;45.666;18.994;2023-05-08T03:48:11;10.73;;;6.45;;
55025;SDS011;40925;45.666;18.994;2023-05-08T03:50:38;10.35;;;6.18;;
55025;SDS011;40925;45.666;18.994;2023-05-08T03:53:05;11.57;;;6.10;;
55025;SDS011;40925;45.666;18.994;2023-05-08T03:55:31;8.25;;;6.10;;
55025;SDS011;40925;45.666;18.994;2023-05-08T04:08:18;8.20;;;6.22;;
55025;SDS011;40925;45.666;18.994;2023-05-08T04:10:49;9.90;;;6.18;;
55025;SDS011;40925;45.666;18.994;2023-05-08T04:13:19;10.55;;;6.60;;
55025;SDS011;40925;45.666;18.994;2023-05-08T04:15:50;9.10;;;6.05;;
55025;SDS011;40925;45.666;18.994;2023-05-08T04:18:17;24.60;;;5.72;;
55025;SDS011;40925;45.666;18.994;2023-05-08T04:20:47;8.68;;;5.65;;
55025;SDS011;40925;45.666;18.994;2023-05-08T04:23:17;8.98;;;5.63;;
55025;SDS011;40925;45.666;18.994;2023-05-08T04:25:43;9.95;;;6.60;;
55025;SDS011;40925;45.666;18.994;2023-05-08T04:28:10;8.57;;;6.15;;
55025;SDS011;40925;45.666;18.994;2023-05-08T04:30:36;11.20;;;6.03;;
55025;SDS011;40925;45.666;18.994;2023-05-08T04:33:04;8.98;;;6.03;;
55025;SDS011;40925;45.666;18.994;2023-05-08T04:35:31;7.43;;;5.45;;
55025;SDS011;40925;45.666;18.994;2023-05-08T04:37:58;7.18;;;5.22;;
55025;SDS011;40925;45.666;18.994;2023-05-08T04:40:24;8.02;;;4.80;;
55025;SDS011;40925;45.666;18.994;2023-05-08T04:42:50;6.13;;;4.88;;
55025;SDS011;40925;45.666;18.994;2023-05-08T04:45:16;8.68;;;5.28;;
55025;SDS011;40925;45.666;18.994;2023-05-08T04:47:43;7.30;;;4.70;;
55025;SDS011;40925;45.666;18.994;2023-05-08T04:50:09;10.02;;;4.95;;
55025;SDS011;40925;45.666;18.994;2023-05-08T04:52:35;7.68;;;4.82;;
55025;SDS011;40925;45.666;18.994;2023-05-08T04:55:01;9.13;;;5.40;;
55025;SDS011;40925;45.666;18.994;2023-05-08T04:57:27;11.70;;;5.05;;
55025;SDS011;40925;45.666;18.994;2023-05-08T04:59:53;8.18;;;5.15;;
55025;SDS011;40925;45.666;18.994;2023-05-08T05:02:19;7.22;;;5.22;;
55025;SDS011;40925;45.666;18.994;2023-05-08T05:04:45;10.50;;;5.78;;
55025;SDS011;40925;45.666;18.994;2023-05-08T05:07:11;9.35;;;5.90;;
55025;SDS011;40925;45.666;18.994;2023-05-08T05:09:37;9.27;;;6.40;;
55025;SDS011;40925;45.666;18.994;2023-05-08T05:12:04;9.77;;;6.90;;
55025;SDS011;40925;45.666;18.994;2023-05-08T05:14:30;9.32;;;5.85;;
55025;SDS011;40925;45.666;18.994;2023-05-08T05:16:56;8.98;;;5.82;;
55025;SDS011;40925;45.666;18.994;2023-05-08T05:19:22;8.93;;;5.38;;
55025;SDS011;40925;45.666;18.994;2023-05-08T05:21:48;11.75;;;6.20;;
55025;SDS011;40925;45.666;18.994;2023-05-08T05:24:14;9.73;;;6.43;;
55025;SDS011;40925;45.666;18.994;2023-05-08T05:26:40;9.40;;;6.07;;
55025;SDS011;40925;45.666;18.994;2023-05-08T05:29:06;8.77;;;6.05;;
55025;SDS011;40925;45.666;18.994;2023-05-08T05:31:32;7.40;;;5.60;;
55025;SDS011;40925;45.666;18.994;2023-05-08T05:33:58;9.02;;;6.07;;
55025;SDS011;40925;45.666;18.994;2023-05-08T05:36:25;9.38;;;6.50;;
55025;SDS011;40925;45.666;18.994;2023-05-08T05:38:51;10.98;;;6.68;;
55025;SDS011;40925;45.666;18.994;2023-05-08T05:41:17;10.65;;;6.70;;
55025;SDS011;40925;45.666;18.994;2023-05-08T05:43:43;9.90;;;7.20;;
55025;SDS011;40925;45.666;18.994;2023-05-08T05:46:09;11.18;;;7.15;;
55025;SDS011;40925;45.666;18.994;2023-05-08T05:48:35;11.30;;;6.60;;
55025;SDS011;40925;45.666;18.994;2023-05-08T05:51:01;9.90;;;7.20;;
55025;SDS011;40925;45.666;18.994;2023-05-08T05:53:27;11.50;;;6.80;;
55025;SDS011;40925;45.666;18.994;2023-05-08T05:55:54;10.55;;;7.53;;
55025;SDS011;40925;45.666;18.994;2023-05-08T05:58:20;10.50;;;7.20;;
55025;SDS011;40925;45.666;18.994;2023-05-08T06:00:46;9.02;;;6.70;;
55025;SDS011;40925;45.666;18.994;2023-05-08T06:03:12;9.90;;;6.55;;
55025;SDS011;40925;45.666;18.994;2023-05-08T06:05:39;10.57;;;6.88;;
55025;SDS011;40925;45.666;18.994;2023-05-08T06:08:05;9.55;;;6.68;;
55025;SDS011;40925;45.666;18.994;2023-05-08T06:10:32;9.82;;;6.65;;
55025;SDS011;40925;45.666;18.994;2023-05-08T06:12:58;9.50;;;6.70;;
55025;SDS011;40925;45.666;18.994;2023-05-08T06:15:24;11.30;;;6.80;;
55025;SDS011;40925;45.666;18.994;2023-05-08T06:17:50;8.82;;;6.95;;
55025;SDS011;40925;45.666;18.994;2023-05-08T06:20:17;9.68;;;6.38;;
55025;SDS011;40925;45.666;18.994;2023-05-08T06:22:43;8.60;;;5.63;;
55025;SDS011;40925;45.666;18.994;2023-05-08T06:25:09;11.45;;;5.43;;
55025;SDS011;40925;45.666;18.994;2023-05-08T06:27:35;7.18;;;4.85;;
55025;SDS011;40925;45.666;18.994;2023-05-08T06:30:02;6.32;;;4.72;;
55025;SDS011;40925;45.666;18.994;2023-05-08T06:32:28;8.70;;;5.32;;
55025;SDS011;40925;45.666;18.994;2023-05-08T06:34:55;6.82;;;4.93;;
55025;SDS011;40925;45.666;18.994;2023-05-08T06:37:21;7.75;;;4.88;;
55025;SDS011;40925;45.666;18.994;2023-05-08T06:39:47;5.68;;;4.25;;
55025;SDS011;40925;45.666;18.994;2023-05-08T06:42:13;7.00;;;4.50;;
55025;SDS011;40925;45.666;18.994;2023-05-08T06:44:40;7.70;;;4.80;;
55025;SDS011;40925;45.666;18.994;2023-05-08T06:47:06;6.07;;;4.40;;
55025;SDS011;40925;45.666;18.994;2023-05-08T06:49:34;9.10;;;4.68;;
55025;SDS011;40925;45.666;18.994;2023-05-08T06:52:00;8.25;;;4.70;;
55025;SDS011;40925;45.666;18.994;2023-05-08T06:54:26;7.03;;;4.30;;
55025;SDS011;40925;45.666;18.994;2023-05-08T06:56:52;6.03;;;4.38;;
55025;SDS011;40925;45.666;18.994;2023-05-08T06:59:18;7.03;;;4.40;;
55025;SDS011;40925;45.666;18.994;2023-05-08T07:01:45;6.72;;;3.75;;
55025;SDS011;40925;45.666;18.994;2023-05-08T07:04:11;5.65;;;3.92;;
55025;SDS011;40925;45.666;18.994;2023-05-08T07:06:37;8.25;;;3.72;;
55025;SDS011;40925;45.666;18.994;2023-05-08T07:09:03;6.70;;;3.88;;
55025;SDS011;40925;45.666;18.994;2023-05-08T07:11:30;6.75;;;4.35;;
55025;SDS011;40925;45.666;18.994;2023-05-08T07:13:56;6.47;;;4.35;;
55025;SDS011;40925;45.666;18.994;2023-05-08T07:16:22;5.47;;;3.75;;
55025;SDS011;40925;45.666;18.994;2023-05-08T07:18:48;6.70;;;4.03;;
55025;SDS011;40925;45.666;18.994;2023-05-08T07:21:15;6.40;;;3.67;;
55025;SDS011;40925;45.666;18.994;2023-05-08T07:23:42;5.22;;;3.63;;
55025;SDS011;40925;45.666;18.994;2023-05-08T07:26:08;6.30;;;3.95;;
55025;SDS011;40925;45.666;18.994;2023-05-08T07:28:35;5.20;;;3.95;;
55025;SDS011;40925;45.666;18.994;2023-05-08T07:31:04;6.32;;;4.00;;
55025;SDS011;40925;45.666;18.994;2023-05-08T07:33:33;5.82;;;3.85;;
55025;SDS011;40925;45.666;18.994;2023-05-08T07:35:59;7.65;;;4.20;;
55025;SDS011;40925;45.666;18.994;2023-05-08T07:38:26;6.53;;;3.40;;
55025;SDS011;40925;45.666;18.994;2023-05-08T07:40:52;3.67;;;3.05;;
55025;SDS011;40925;45.666;18.994;2023-05-08T07:43:21;5.10;;;3.33;;
55025;SDS011;40925;45.666;18.994;2023-05-08T07:45:47;5.03;;;3.50;;
55025;SDS011;40925;45.666;18.994;2023-05-08T07:48:13;6.95;;;3.47;;
55025;SDS011;40925;45.666;18.994;2023-05-08T07:50:39;10.95;;;4.20;;
55025;SDS011;40925;45.666;18.994;2023-05-08T07:53:05;5.05;;;3.58;;
55025;SDS011;40925;45.666;18.994;2023-05-08T07:55:31;4.63;;;3.30;;
55025;SDS011;40925;45.666;18.994;2023-05-08T07:57:57;4.95;;;3.80;;
55025;SDS011;40925;45.666;18.994;2023-05-08T08:00:23;6.38;;;3.78;;
55025;SDS011;40925;45.666;18.994;2023-05-08T08:02:51;4.72;;;3.67;;
55025;SDS011;40925;45.666;18.994;2023-05-08T08:05:17;5.85;;;3.60;;
55025;SDS011;40925;45.666;18.994;2023-05-08T08:07:44;7.15;;;3.65;;
55025;SDS011;40925;45.666;18.994;2023-05-08T08:10:10;6.72;;;3.63;;
55025;SDS011;40925;45.666;18.994;2023-05-08T08:12:36;4.40;;;3.78;;
55025;SDS011;40925;45.666;18.994;2023-05-08T08:15:03;4.85;;;3.83;;
55025;SDS011;40925;45.666;18.994;2023-05-08T08:17:29;5.13;;;3.85;;
55025;SDS011;40925;45.666;18.994;2023-05-08T08:19:55;6.00;;;4.03;;
55025;SDS011;40925;45.666;18.994;2023-05-08T08:22:22;5.38;;;3.65;;
55025;SDS011;40925;45.666;18.994;2023-05-08T08:24:48;4.38;;;3.58;;
55025;SDS011;40925;45.666;18.994;2023-05-08T08:27:14;4.90;;;3.63;;
55025;SDS011;40925;45.666;18.994;2023-05-08T08:29:40;6.68;;;3.72;;
55025;SDS011;40925;45.666;18.994;2023-05-08T08:32:06;4.70;;;3.60;;
55025;SDS011;40925;45.666;18.994;2023-05-08T08:37:57;6.00;;;3.35;;
55025;SDS011;40925;45.666;18.994;2023-05-08T08:40:23;4.53;;;3.53;;
55025;SDS011;40925;45.666;18.994;2023-05-08T08:42:49;9.63;;;3.78;;
55025;SDS011;40925;45.666;18.994;2023-05-08T08:45:15;4.72;;;3.63;;
55025;SDS011;40925;45.666;18.994;2023-05-08T08:47:42;4.25;;;3.28;;
55025;SDS011;40925;45.666;18.994;2023-05-08T08:50:09;5.57;;;3.28;;
55025;SDS011;40925;45.666;18.994;2023-05-08T08:55:05;4.28;;;3.40;;
55025;SDS011;40925;45.666;18.994;2023-05-08T08:57:32;4.35;;;3.40;;
55025;SDS011;40925;45.666;18.994;2023-05-08T09:00:00;5.63;;;3.63;;
55025;SDS011;40925;45.666;18.994;2023-05-08T09:02:28;4.18;;;3.47;;
55025;SDS011;40925;45.666;18.994;2023-05-08T09:04:55;6.18;;;3.63;;
55025;SDS011;40925;45.666;18.994;2023-05-08T09:07:22;9.30;;;3.70;;
55025;SDS011;40925;45.666;18.994;2023-05-08T09:09:48;4.82;;;3.47;;
55025;SDS011;40925;45.666;18.994;2023-05-08T09:12:15;5.75;;;3.58;;
55025;SDS011;40925;45.666;18.994;2023-05-08T09:14:41;5.18;;;3.60;;
55025;SDS011;40925;45.666;18.994;2023-05-08T09:17:08;5.00;;;3.30;;
55025;SDS011;40925;45.666;18.994;2023-05-08T09:19:33;6.53;;;3.70;;
55025;SDS011;40925;45.666;18.994;2023-05-08T09:22:00;4.60;;;3.40;;
55025;SDS011;40925;45.666;18.994;2023-05-08T09:27:23;4.95;;;3.85;;
55025;SDS011;40925;45.666;18.994;2023-05-08T09:30:10;4.80;;;3.83;;
55025;SDS011;40925;45.666;18.994;2023-05-08T09:35:35;6.32;;;3.80;;
55025;SDS011;40925;45.666;18.994;2023-05-08T09:38:01;5.47;;;3.78;;
55025;SDS011;40925;45.666;18.994;2023-05-08T09:40:27;4.63;;;3.45;;
55025;SDS011;40925;45.666;18.994;2023-05-08T09:42:53;5.10;;;3.60;;
55025;SDS011;40925;45.666;18.994;2023-05-08T09:45:28;8.00;;;4.20;;
55025;SDS011;40925;45.666;18.994;2023-05-08T09:47:55;6.55;;;4.07;;
55025;SDS011;40925;45.666;18.994;2023-05-08T09:50:21;5.38;;;3.67;;
55025;SDS011;40925;45.666;18.994;2023-05-08T09:52:47;5.25;;;3.60;;
55025;SDS011;40925;45.666;18.994;2023-05-08T09:55:14;5.80;;;3.90;;
55025;SDS011;40925;45.666;18.994;2023-05-08T09:57:53;7.03;;;3.72;;
55025;SDS011;40925;45.666;18.994;2023-05-08T10:00:21;5.65;;;4.07;;
55025;SDS011;40925;45.666;18.994;2023-05-08T10:02:54;4.95;;;4.20;;
55025;SDS011;40925;45.666;18.994;2023-05-08T10:05:22;7.93;;;4.45;;
55025;SDS011;40925;45.666;18.994;2023-05-08T10:07:48;6.18;;;4.40;;
55025;SDS011;40925;45.666;18.994;2023-05-08T10:10:14;4.95;;;3.83;;
55025;SDS011;40925;45.666;18.994;2023-05-08T10:12:47;5.97;;;4.10;;
55025;SDS011;40925;45.666;18.994;2023-05-08T10:15:13;5.30;;;3.97;;
55025;SDS011;40925;45.666;18.994;2023-05-08T10:22:49;4.80;;;3.70;;
55025;SDS011;40925;45.666;18.994;2023-05-08T10:25:17;5.18;;;4.00;;
55025;SDS011;40925;45.666;18.994;2023-05-08T10:27:47;5.43;;;3.88;;
55025;SDS011;40925;45.666;18.994;2023-05-08T10:30:16;5.38;;;4.00;;
55025;SDS011;40925;45.666;18.994;2023-05-08T10:32:44;4.75;;;3.80;;
55025;SDS011;40925;45.666;18.994;2023-05-08T10:35:15;4.78;;;3.80;;
55025;SDS011;40925;45.666;18.994;2023-05-08T10:37:42;6.28;;;3.88;;
55025;SDS011;40925;45.666;18.994;2023-05-08T10:40:10;6.43;;;4.00;;
55025;SDS011;40925;45.666;18.994;2023-05-08T10:42:39;4.90;;;3.80;;
55025;SDS011;40925;45.666;18.994;2023-05-08T10:45:06;6.22;;;3.70;;
55025;SDS011;40925;45.666;18.994;2023-05-08T10:55:28;5.32;;;4.07;;
55025;SDS011;40925;45.666;18.994;2023-05-08T11:00:30;4.63;;;3.50;;
55025;SDS011;40925;45.666;18.994;2023-05-08T11:03:04;4.57;;;3.80;;
55025;SDS011;40925;45.666;18.994;2023-05-08T11:05:32;4.50;;;3.45;;
55025;SDS011;40925;45.666;18.994;2023-05-08T11:08:13;5.28;;;3.45;;
55025;SDS011;40925;45.666;18.994;2023-05-08T11:10:39;4.90;;;3.70;;
55025;SDS011;40925;45.666;18.994;2023-05-08T11:13:06;6.05;;;3.80;;
55025;SDS011;40925;45.666;18.994;2023-05-08T11:15:36;7.28;;;4.25;;
55025;SDS011;40925;45.666;18.994;2023-05-08T11:18:03;5.95;;;3.30;;
55025;SDS011;40925;45.666;18.994;2023-05-08T11:23:34;4.63;;;3.50;;
55025;SDS011;40925;45.666;18.994;2023-05-08T11:28:39;4.63;;;3.80;;
55025;SDS011;40925;45.666;18.994;2023-05-08T11:31:19;4.55;;;3.65;;
55025;SDS011;40925;45.666;18.994;2023-05-08T11:33:45;3.90;;;3.47;;
55025;SDS011;40925;45.666;18.994;2023-05-08T11:38:38;4.80;;;3.05;;
55025;SDS011;40925;45.666;18.994;2023-05-08T11:41:20;5.15;;;3.50;;
55025;SDS011;40925;45.666;18.994;2023-05-08T11:46:19;4.68;;;3.70;;
55025;SDS011;40925;45.666;18.994;2023-05-08T11:51:31;4.10;;;3.50;;
55025;SDS011;40925;45.666;18.994;2023-05-08T11:53:59;4.90;;;3.17;;
55025;SDS011;40925;45.666;18.994;2023-05-08T11:56:25;5.50;;;3.15;;
55025;SDS011;40925;45.666;18.994;2023-05-08T11:59:00;3.88;;;2.92;;
55025;SDS011;40925;45.666;18.994;2023-05-08T12:01:27;4.05;;;3.05;;
55025;SDS011;40925;45.666;18.994;2023-05-08T12:04:00;14.57;;;3.47;;
55025;SDS011;40925;45.666;18.994;2023-05-08T12:06:26;4.40;;;3.10;;
55025;SDS011;40925;45.666;18.994;2023-05-08T12:08:52;5.05;;;3.00;;
55025;SDS011;40925;45.666;18.994;2023-05-08T12:11:22;4.65;;;2.55;;
55025;SDS011;40925;45.666;18.994;2023-05-08T12:13:51;4.32;;;2.80;;
55025;SDS011;40925;45.666;18.994;2023-05-08T12:16:18;4.57;;;2.42;;
55025;SDS011;40925;45.666;18.994;2023-05-08T12:18:45;5.65;;;2.88;;
55025;SDS011;40925;45.666;18.994;2023-05-08T12:21:13;3.85;;;2.47;;
55025;SDS011;40925;45.666;18.994;2023-05-08T12:23:40;5.50;;;3.10;;
55025;SDS011;40925;45.666;18.994;2023-05-08T12:26:07;5.32;;;2.92;;
55025;SDS011;40925;45.666;18.994;2023-05-08T12:28:32;5.55;;;2.88;;
55025;SDS011;40925;45.666;18.994;2023-05-08T12:30:59;5.03;;;2.90;;
55025;SDS011;40925;45.666;18.994;2023-05-08T12:33:25;4.85;;;2.70;;
55025;SDS011;40925;45.666;18.994;2023-05-08T12:35:53;4.10;;;2.75;;
55025;SDS011;40925;45.666;18.994;2023-05-08T12:38:24;3.40;;;2.60;;
55025;SDS011;40925;45.666;18.994;2023-05-08T12:40:51;3.00;;;2.35;;
55025;SDS011;40925;45.666;18.994;2023-05-08T12:43:17;6.30;;;2.60;;
55025;SDS011;40925;45.666;18.994;2023-05-08T12:45:43;3.00;;;2.60;;
55025;SDS011;40925;45.666;18.994;2023-05-08T12:50:36;4.97;;;2.40;;
55025;SDS011;40925;45.666;18.994;2023-05-08T12:53:06;3.97;;;2.22;;
55025;SDS011;40925;45.666;18.994;2023-05-08T12:55:37;5.80;;;2.80;;
55025;SDS011;40925;45.666;18.994;2023-05-08T12:58:06;3.72;;;2.90;;
55025;SDS011;40925;45.666;18.994;2023-05-08T13:00:39;3.75;;;2.28;;
55025;SDS011;40925;45.666;18.994;2023-05-08T13:03:10;4.38;;;2.60;;
55025;SDS011;40925;45.666;18.994;2023-05-08T13:05:42;3.15;;;2.50;;
55025;SDS011;40925;45.666;18.994;2023-05-08T13:08:09;3.67;;;2.65;;
55025;SDS011;40925;45.666;18.994;2023-05-08T13:10:51;3.55;;;2.70;;
55025;SDS011;40925;45.666;18.994;2023-05-08T13:13:22;4.35;;;2.60;;
55025;SDS011;40925;45.666;18.994;2023-05-08T13:15:50;3.45;;;2.60;;
55025;SDS011;40925;45.666;18.994;2023-05-08T13:18:16;5.20;;;2.55;;
55025;SDS011;40925;45.666;18.994;2023-05-08T13:20:43;4.18;;;2.28;;
55025;SDS011;40925;45.666;18.994;2023-05-08T13:23:10;3.60;;;2.50;;
55025;SDS011;40925;45.666;18.994;2023-05-08T13:25:37;6.40;;;2.85;;
55025;SDS011;40925;45.666;18.994;2023-05-08T13:28:04;3.85;;;2.65;;
55025;SDS011;40925;45.666;18.994;2023-05-08T13:30:31;4.85;;;2.35;;
55025;SDS011;40925;45.666;18.994;2023-05-08T13:32:57;5.18;;;2.33;;
55025;SDS011;40925;45.666;18.994;2023-05-08T13:35:23;4.03;;;2.53;;
55025;SDS011;40925;45.666;18.994;2023-05-08T13:37:50;6.20;;;2.60;;
55025;SDS011;40925;45.666;18.994;2023-05-08T13:40:16;3.67;;;2.42;;
55025;SDS011;40925;45.666;18.994;2023-05-08T13:42:42;3.20;;;2.40;;
55025;SDS011;40925;45.666;18.994;2023-05-08T13:45:08;3.67;;;2.50;;
55025;SDS011;40925;45.666;18.994;2023-05-08T13:47:35;3.90;;;2.30;;
55025;SDS011;40925;45.666;18.994;2023-05-08T13:50:01;4.53;;;2.30;;
55025;SDS011;40925;45.666;18.994;2023-05-08T13:52:27;2.97;;;2.30;;
55025;SDS011;40925;45.666;18.994;2023-05-08T13:54:56;3.05;;;2.40;;
55025;SDS011;40925;45.666;18.994;2023-05-08T13:57:22;5.25;;;2.20;;
55025;SDS011;40925;45.666;18.994;2023-05-08T13:59:48;4.45;;;2.38;;
55025;SDS011;40925;45.666;18.994;2023-05-08T14:02:14;4.65;;;2.30;;
55025;SDS011;40925;45.666;18.994;2023-05-08T14:04:40;5.03;;;2.38;;
55025;SDS011;40925;45.666;18.994;2023-05-08T14:07:05;3.53;;;2.13;;
55025;SDS011;40925;45.666;18.994;2023-05-08T14:09:31;4.60;;;2.28;;
55025;SDS011;40925;45.666;18.994;2023-05-08T14:11:57;3.13;;;2.30;;
55025;SDS011;40925;45.666;18.994;2023-05-08T14:14:23;3.10;;;2.25;;
55025;SDS011;40925;45.666;18.994;2023-05-08T14:16:49;3.03;;;2.30;;
55025;SDS011;40925;45.666;18.994;2023-05-08T14:19:15;3.95;;;2.42;;
55025;SDS011;40925;45.666;18.994;2023-05-08T14:21:42;4.45;;;2.10;;
55025;SDS011;40925;45.666;18.994;2023-05-08T14:24:08;3.30;;;2.17;;
55025;SDS011;40925;45.666;18.994;2023-05-08T14:26:51;3.35;;;1.88;;
55025;SDS011;40925;45.666;18.994;2023-05-08T14:29:16;4.03;;;2.00;;
55025;SDS011;40925;45.666;18.994;2023-05-08T14:31:45;3.63;;;2.10;;
55025;SDS011;40925;45.666;18.994;2023-05-08T14:34:11;2.55;;;1.88;;
55025;SDS011;40925;45.666;18.994;2023-05-08T14:36:36;3.78;;;2.30;;
55025;SDS011;40925;45.666;18.994;2023-05-08T14:39:02;2.72;;;1.90;;
55025;SDS011;40925;45.666;18.994;2023-05-08T14:41:28;3.97;;;2.00;;
55025;SDS011;40925;45.666;18.994;2023-05-08T14:43:54;2.95;;;2.33;;
55025;SDS011;40925;45.666;18.994;2023-05-08T14:46:20;4.93;;;2.25;;
55025;SDS011;40925;45.666;18.994;2023-05-08T14:48:46;2.65;;;1.92;;
55025;SDS011;40925;45.666;18.994;2023-05-08T14:51:12;4.18;;;2.10;;
55025;SDS011;40925;45.666;18.994;2023-05-08T14:53:38;3.50;;;1.88;;
55025;SDS011;40925;45.666;18.994;2023-05-08T14:56:05;3.15;;;2.00;;
55025;SDS011;40925;45.666;18.994;2023-05-08T14:58:31;2.65;;;2.15;;
55025;SDS011;40925;45.666;18.994;2023-05-08T15:00:57;4.55;;;2.30;;
55025;SDS011;40925;45.666;18.994;2023-05-08T15:03:23;3.42;;;2.30;;
55025;SDS011;40925;45.666;18.994;2023-05-08T15:05:49;4.78;;;2.00;;
55025;SDS011;40925;45.666;18.994;2023-05-08T15:08:15;3.22;;;2.25;;
55025;SDS011;40925;45.666;18.994;2023-05-08T15:10:42;2.40;;;2.10;;
55025;SDS011;40925;45.666;18.994;2023-05-08T15:13:08;2.70;;;2.03;;
55025;SDS011;40925;45.666;18.994;2023-05-08T15:15:34;3.35;;;2.20;;
55025;SDS011;40925;45.666;18.994;2023-05-08T15:18:00;2.78;;;2.00;;
55025;SDS011;40925;45.666;18.994;2023-05-08T15:20:26;4.03;;;2.40;;
55025;SDS011;40925;45.666;18.994;2023-05-08T15:22:52;3.13;;;2.05;;
55025;SDS011;40925;45.666;18.994;2023-05-08T15:25:19;6.35;;;2.08;;
55025;SDS011;40925;45.666;18.994;2023-05-08T15:27:45;4.13;;;2.22;;
55025;SDS011;40925;45.666;18.994;2023-05-08T15:30:16;4.28;;;2.20;;
55025;SDS011;40925;45.666;18.994;2023-05-08T15:32:43;2.83;;;2.10;;
55025;SDS011;40925;45.666;18.994;2023-05-08T15:35:09;5.93;;;2.10;;
55025;SDS011;40925;45.666;18.994;2023-05-08T15:37:34;4.88;;;2.20;;
55025;SDS011;40925;45.666;18.994;2023-05-08T15:40:01;4.72;;;2.00;;
55025;SDS011;40925;45.666;18.994;2023-05-08T15:42:27;3.13;;;2.17;;
55025;SDS011;40925;45.666;18.994;2023-05-08T15:44:56;3.80;;;2.15;;
55025;SDS011;40925;45.666;18.994;2023-05-08T15:47:22;6.07;;;2.58;;